Time;durP1;ratioP1;P1;durP2;ratioP2;P2;SDS_P1;SDS_P2;PMS_P1;PMS_P2;Temp;Humidity;BMP_temperature;BMP_pressure;BME280_temperature;BME280_humidity;BME280_pressure;Samples;Min_cycle;Max_cycle;Signal;HPM_P1;HPM_P2
2021/11/10 00:01:34;;;;;;;6.30;5.05;;;;;;;;;;5036324;28;20203;-49
2021/11/10 00:04:00;;;;;;;7.18;5.03;;;;;;;;;;5036528;28;20187;-50
2021/11/10 00:06:26;;;;;;;6.05;4.75;;;;;;;;;;5036744;28;20188;-50
2021/11/10 00:08:52;;;;;;;6.57;5.50;;;;;;;;;;5036448;28;20184;-50
2021/11/10 00:11:18;;;;;;;6.05;5.18;;;;;;;;;;5050573;28;20187;-51
2021/11/10 00:13:44;;;;;;;5.82;5.22;;;;;;;;;;5042619;28;20195;-50
2021/11/10 00:16:10;;;;;;;6.00;4.85;;;;;;;;;;5035019;28;20184;-51
2021/11/10 00:18:36;;;;;;;6.20;4.63;;;;;;;;;;5036805;28;20214;-50
2021/11/10 00:21:02;;;;;;;6.13;4.93;;;;;;;;;;5036458;28;20176;-50
2021/11/10 00:23:28;;;;;;;5.75;5.00;;;;;;;;;;5035774;28;20544;-51
2021/11/10 00:25:54;;;;;;;5.90;4.90;;;;;;;;;;5036396;28;20334;-50
2021/11/10 00:28:20;;;;;;;5.40;4.68;;;;;;;;;;5037021;28;20514;-50
2021/11/10 00:30:46;;;;;;;6.97;5.07;;;;;;;;;;5036270;28;20225;-50
2021/11/10 00:33:12;;;;;;;7.40;4.45;;;;;;;;;;5034345;28;20574;-51
2021/11/10 00:35:38;;;;;;;5.38;4.88;;;;;;;;;;5035986;28;20191;-49
2021/11/10 00:38:04;;;;;;;6.15;4.68;;;;;;;;;;5036425;28;20595;-50
2021/11/10 00:40:30;;;;;;;5.47;4.55;;;;;;;;;;5036324;28;20179;-50
2021/11/10 00:42:56;;;;;;;5.75;4.57;;;;;;;;;;5036021;28;20175;-50
2021/11/10 00:45:22;;;;;;;6.28;5.03;;;;;;;;;;5036130;28;20186;-49
2021/11/10 00:47:48;;;;;;;5.85;4.50;;;;;;;;;;5034001;28;20220;-51
2021/11/10 00:50:14;;;;;;;5.68;4.45;;;;;;;;;;5035871;28;20466;-51
2021/11/10 00:52:40;;;;;;;4.97;4.30;;;;;;;;;;5036030;28;20184;-50
2021/11/10 00:55:06;;;;;;;5.22;4.35;;;;;;;;;;5034812;28;20175;-50
2021/11/10 00:57:33;;;;;;;5.55;4.47;;;;;;;;;;5042941;28;20183;-50
2021/11/10 00:59:59;;;;;;;4.97;4.47;;;;;;;;;;5035803;28;20198;-50
2021/11/10 01:02:25;;;;;;;5.50;4.45;;;;;;;;;;5035373;28;20207;-50
2021/11/10 01:04:51;;;;;;;5.28;4.30;;;;;;;;;;5033807;28;20171;-50
2021/11/10 01:07:18;;;;;;;4.30;3.90;;;;;;;;;;5036518;28;20172;-49
2021/11/10 01:09:47;;;;;;;5.07;4.40;;;;;;;;;;5037078;28;20581;-50
2021/11/10 01:12:13;;;;;;;5.20;4.70;;;;;;;;;;5036661;28;20202;-50
2021/11/10 01:14:40;;;;;;;5.55;4.22;;;;;;;;;;5035887;28;20184;-49
2021/11/10 01:17:08;;;;;;;4.88;4.40;;;;;;;;;;5036123;28;20180;-49
2021/11/10 01:19:34;;;;;;;4.72;4.22;;;;;;;;;;5036503;28;20210;-51
2021/11/10 01:22:00;;;;;;;5.03;4.15;;;;;;;;;;5036034;28;20183;-51
2021/11/10 01:24:26;;;;;;;4.85;4.25;;;;;;;;;;5035913;28;20180;-51
2021/11/10 01:26:52;;;;;;;4.88;4.05;;;;;;;;;;5016489;28;20176;-49
2021/11/10 01:29:18;;;;;;;5.60;4.47;;;;;;;;;;5030614;28;20203;-50
2021/11/10 01:31:44;;;;;;;4.57;4.18;;;;;;;;;;5035994;28;20184;-49
2021/11/10 01:34:10;;;;;;;4.53;3.88;;;;;;;;;;5036072;28;20249;-51
2021/11/10 01:36:37;;;;;;;5.03;4.50;;;;;;;;;;5034376;28;20203;-49
2021/11/10 01:39:06;;;;;;;5.85;4.28;;;;;;;;;;5021977;28;20216;-49
2021/11/10 01:41:38;;;;;;;4.60;3.95;;;;;;;;;;5032727;28;20176;-50
2021/11/10 01:44:04;;;;;;;4.80;3.58;;;;;;;;;;5034591;28;20172;-50
2021/11/10 01:46:32;;;;;;;4.50;4.03;;;;;;;;;;5031914;28;20273;-50
2021/11/10 01:48:58;;;;;;;4.32;3.92;;;;;;;;;;5033744;28;20180;-50
2021/11/10 01:51:24;;;;;;;4.40;3.90;;;;;;;;;;5035026;28;20182;-50
2021/11/10 01:53:52;;;;;;;4.68;4.07;;;;;;;;;;5034414;28;20184;-49
2021/11/10 01:56:19;;;;;;;4.40;3.70;;;;;;;;;;5034160;28;20190;-51
2021/11/10 01:58:45;;;;;;;4.78;4.20;;;;;;;;;;5054650;28;20183;-50
2021/11/10 02:01:11;;;;;;;4.97;4.03;;;;;;;;;;5038117;28;20238;-50
2021/11/10 02:03:37;;;;;;;4.95;4.13;;;;;;;;;;5034280;28;20567;-50
2021/11/10 02:06:03;;;;;;;4.72;4.13;;;;;;;;;;5034586;28;20221;-49
2021/11/10 02:08:29;;;;;;;5.38;4.15;;;;;;;;;;5035105;28;20176;-50
2021/11/10 02:10:57;;;;;;;4.60;3.50;;;;;;;;;;5033727;28;20183;-51
2021/11/10 02:13:23;;;;;;;4.50;3.97;;;;;;;;;;5029222;28;20220;-50
2021/11/10 02:15:49;;;;;;;5.18;4.25;;;;;;;;;;5034317;28;20188;-49
2021/11/10 02:18:15;;;;;;;4.10;3.65;;;;;;;;;;5034771;28;20470;-51
2021/11/10 02:20:41;;;;;;;4.10;3.70;;;;;;;;;;5034533;28;20203;-49
2021/11/10 02:23:08;;;;;;;3.83;3.38;;;;;;;;;;5034384;28;20175;-50
2021/11/10 02:25:34;;;;;;;4.72;3.53;;;;;;;;;;5033858;28;20180;-50
2021/11/10 02:28:00;;;;;;;3.95;3.55;;;;;;;;;;5030105;28;20560;-50
2021/11/10 02:30:27;;;;;;;4.18;3.78;;;;;;;;;;5027827;28;20184;-50
2021/11/10 02:32:54;;;;;;;5.72;3.88;;;;;;;;;;5033366;28;20176;-52
2021/11/10 02:35:23;;;;;;;4.07;3.63;;;;;;;;;;5033917;28;20475;-49
2021/11/10 02:37:50;;;;;;;4.97;4.18;;;;;;;;;;5030640;28;20208;-51
2021/11/10 02:40:16;;;;;;;6.07;4.10;;;;;;;;;;5033977;28;20182;-51
2021/11/10 02:42:42;;;;;;;4.05;3.65;;;;;;;;;;5034029;28;20183;-50
2021/11/10 02:45:08;;;;;;;3.97;3.58;;;;;;;;;;5031730;28;20547;-50
2021/11/10 02:47:35;;;;;;;4.32;3.92;;;;;;;;;;5034160;28;20578;-50
2021/11/10 02:50:01;;;;;;;4.15;3.75;;;;;;;;;;5032795;28;20198;-51
2021/11/10 02:52:27;;;;;;;4.20;3.78;;;;;;;;;;5034105;28;20544;-50
2021/11/10 02:54:54;;;;;;;3.65;3.28;;;;;;;;;;5032806;28;20187;-50
2021/11/10 02:57:21;;;;;;;4.45;3.92;;;;;;;;;;5035577;28;20553;-51
2021/11/10 02:59:48;;;;;;;4.00;3.58;;;;;;;;;;5033884;28;20214;-50
2021/11/10 03:02:14;;;;;;;5.18;3.50;;;;;;;;;;5034838;28;20199;-50
2021/11/10 03:04:44;;;;;;;3.88;3.47;;;;;;;;;;5037316;28;20613;-50
2021/11/10 03:07:11;;;;;;;4.30;3.60;;;;;;;;;;5038385;28;20188;-50
2021/11/10 03:09:37;;;;;;;3.83;3.30;;;;;;;;;;5038035;28;20267;-50
2021/11/10 03:12:04;;;;;;;4.15;3.17;;;;;;;;;;5037863;28;20183;-50
2021/11/10 03:14:31;;;;;;;3.83;3.42;;;;;;;;;;5037193;28;20241;-51
2021/11/10 03:16:58;;;;;;;4.00;3.53;;;;;;;;;;5034774;28;20207;-51
2021/11/10 03:19:24;;;;;;;4.03;3.30;;;;;;;;;;5038015;28;20250;-49
2021/11/10 03:21:50;;;;;;;3.65;3.30;;;;;;;;;;5037832;28;20190;-50
2021/11/10 03:24:16;;;;;;;3.40;3.10;;;;;;;;;;5037085;28;20180;-49
2021/11/10 03:26:43;;;;;;;4.25;3.53;;;;;;;;;;5037321;28;20196;-50
2021/11/10 03:29:09;;;;;;;4.03;3.63;;;;;;;;;;5038280;28;20584;-50
2021/11/10 03:31:37;;;;;;;3.13;2.90;;;;;;;;;;5037228;28;20275;-50
2021/11/10 03:34:03;;;;;;;3.88;3.33;;;;;;;;;;5037618;28;20591;-50
2021/11/10 03:36:29;;;;;;;3.40;3.10;;;;;;;;;;5037316;28;20222;-49
2021/11/10 03:38:56;;;;;;;3.47;3.17;;;;;;;;;;5037334;28;20207;-51
2021/11/10 03:41:22;;;;;;;3.58;3.28;;;;;;;;;;5037343;28;20184;-49
2021/11/10 03:43:51;;;;;;;3.55;3.25;;;;;;;;;;5033723;28;20177;-50
2021/11/10 03:46:18;;;;;;;3.88;3.47;;;;;;;;;;5031628;28;20184;-51
2021/11/10 03:48:45;;;;;;;3.85;3.30;;;;;;;;;;5033337;28;20191;-50
2021/11/10 03:51:11;;;;;;;4.10;3.33;;;;;;;;;;5035937;28;20230;-50
2021/11/10 03:53:37;;;;;;;3.35;3.05;;;;;;;;;;5036652;28;20187;-51
2021/11/10 03:56:03;;;;;;;3.30;3.00;;;;;;;;;;5037412;28;20263;-50
2021/11/10 03:58:31;;;;;;;3.42;3.10;;;;;;;;;;5038741;28;20200;-50
2021/11/10 04:00:57;;;;;;;3.97;3.58;;;;;;;;;;5029277;28;20503;-50
2021/11/10 04:03:23;;;;;;;3.40;3.10;;;;;;;;;;5036167;28;20219;-50
2021/11/10 04:05:50;;;;;;;3.65;3.10;;;;;;;;;;5036796;28;20191;-51
2021/11/10 04:08:16;;;;;;;3.33;3.03;;;;;;;;;;5021404;28;20314;-49
2021/11/10 04:10:42;;;;;;;3.38;3.08;;;;;;;;;;5036676;28;20184;-50
2021/11/10 04:13:09;;;;;;;3.45;3.15;;;;;;;;;;5023111;28;20240;-49
2021/11/10 04:15:35;;;;;;;3.75;3.45;;;;;;;;;;5026589;28;20203;-49
2021/11/10 04:18:01;;;;;;;3.17;2.75;;;;;;;;;;5037143;28;20204;-50
2021/11/10 04:20:27;;;;;;;3.13;2.83;;;;;;;;;;5036147;28;20172;-50
2021/11/10 04:22:53;;;;;;;3.25;2.90;;;;;;;;;;5036185;28;20543;-50
2021/11/10 04:25:19;;;;;;;2.60;2.40;;;;;;;;;;5036226;28;20183;-50
2021/11/10 04:27:45;;;;;;;3.05;2.75;;;;;;;;;;5036284;28;20188;-49
2021/11/10 04:30:11;;;;;;;3.05;2.75;;;;;;;;;;5036716;28;20831;-51
2021/11/10 04:32:38;;;;;;;4.38;3.13;;;;;;;;;;5036795;28;20197;-50
2021/11/10 04:35:06;;;;;;;2.75;2.55;;;;;;;;;;5035686;28;20198;-50
2021/11/10 04:37:32;;;;;;;3.45;2.80;;;;;;;;;;5036711;28;20180;-50
2021/11/10 04:39:59;;;;;;;3.70;3.40;;;;;;;;;;5035306;28;20559;-49
2021/11/10 04:42:25;;;;;;;3.38;3.08;;;;;;;;;;5036649;28;20253;-50
2021/11/10 04:44:56;;;;;;;3.33;3.03;;;;;;;;;;5035689;28;20177;-50
2021/11/10 04:47:22;;;;;;;3.45;2.95;;;;;;;;;;5035985;28;20219;-51
2021/11/10 04:49:49;;;;;;;3.15;2.80;;;;;;;;;;5036105;28;20184;-50
2021/11/10 04:52:17;;;;;;;2.97;2.67;;;;;;;;;;5036335;28;20462;-49
2021/11/10 04:54:43;;;;;;;3.10;2.80;;;;;;;;;;5030168;28;20309;-50
2021/11/10 04:57:09;;;;;;;2.90;2.70;;;;;;;;;;5038527;28;20547;-50
2021/11/10 04:59:36;;;;;;;3.28;2.95;;;;;;;;;;5035985;28;20606;-50
2021/11/10 05:04:30;;;;;;;3.42;3.13;;;;;;;;;;5035411;28;20192;-51
2021/11/10 05:06:57;;;;;;;3.10;2.80;;;;;;;;;;5036256;28;20241;-49
2021/11/10 05:09:23;;;;;;;3.22;2.92;;;;;;;;;;5035630;28;20241;-50
2021/11/10 05:11:49;;;;;;;3.63;3.10;;;;;;;;;;5036239;28;20262;-50
2021/11/10 05:14:15;;;;;;;3.03;2.83;;;;;;;;;;5035558;28;20188;-51
2021/11/10 05:16:41;;;;;;;3.40;3.10;;;;;;;;;;5035088;28;20194;-50
2021/11/10 05:19:07;;;;;;;3.03;2.72;;;;;;;;;;5035792;28;20208;-50
2021/11/10 05:21:33;;;;;;;3.03;2.72;;;;;;;;;;5035155;28;20226;-50
2021/11/10 05:23:59;;;;;;;4.70;3.67;;;;;;;;;;5017586;28;20796;-50
2021/11/10 05:26:25;;;;;;;12.70;5.20;;;;;;;;;;5031288;28;20187;-50
2021/11/10 05:28:51;;;;;;;18.42;6.30;;;;;;;;;;5035434;28;20199;-51
2021/11/10 05:31:18;;;;;;;22.20;7.78;;;;;;;;;;5034708;28;20261;-50
2021/11/10 05:33:44;;;;;;;30.98;9.25;;;;;;;;;;5035397;28;20487;-50
2021/11/10 05:36:10;;;;;;;29.17;9.48;;;;;;;;;;5033601;28;20184;-49
2021/11/10 05:38:36;;;;;;;34.03;10.68;;;;;;;;;;5015733;28;20235;-49
2021/11/10 05:41:02;;;;;;;30.20;10.35;;;;;;;;;;5028662;28;20174;-51
2021/11/10 05:43:28;;;;;;;30.70;11.00;;;;;;;;;;5034966;28;20220;-49
2021/11/10 05:45:54;;;;;;;31.42;11.02;;;;;;;;;;5034590;28;20525;-49
2021/11/10 05:48:20;;;;;;;34.28;11.63;;;;;;;;;;5035056;28;20254;-51
2021/11/10 05:50:46;;;;;;;33.42;11.25;;;;;;;;;;5030752;28;20567;-50
2021/11/10 05:53:12;;;;;;;31.27;11.00;;;;;;;;;;5025001;28;20190;-49
2021/11/10 05:55:40;;;;;;;34.85;11.35;;;;;;;;;;5035493;28;20180;-51
2021/11/10 05:58:06;;;;;;;33.25;11.30;;;;;;;;;;5052014;28;20466;-50
2021/11/10 06:00:33;;;;;;;34.55;10.88;;;;;;;;;;5045827;28;20180;-49
2021/11/10 06:02:59;;;;;;;35.05;12.77;;;;;;;;;;5034971;28;20243;-50
2021/11/10 06:05:26;;;;;;;40.72;13.23;;;;;;;;;;5032154;28;20230;-50
2021/11/10 06:07:52;;;;;;;36.92;11.48;;;;;;;;;;5035477;28;20176;-49
2021/11/10 06:10:19;;;;;;;34.30;11.80;;;;;;;;;;5035141;28;20251;-50
2021/11/10 06:12:46;;;;;;;29.17;11.20;;;;;;;;;;5034881;28;20237;-51
2021/11/10 06:15:12;;;;;;;36.03;12.35;;;;;;;;;;5034240;28;20255;-50
2021/11/10 06:17:39;;;;;;;35.65;11.60;;;;;;;;;;5033008;28;20176;-51
2021/11/10 06:20:06;;;;;;;34.33;12.05;;;;;;;;;;5035112;28;20479;-50
2021/11/10 06:22:32;;;;;;;35.28;12.30;;;;;;;;;;5034763;28;20171;-50
2021/11/10 06:24:58;;;;;;;32.75;11.75;;;;;;;;;;5034073;28;20194;-49
2021/11/10 06:27:25;;;;;;;29.15;11.50;;;;;;;;;;5034786;28;20222;-49
2021/11/10 06:29:51;;;;;;;28.48;10.98;;;;;;;;;;5033970;28;20180;-49
2021/11/10 06:32:17;;;;;;;27.23;10.95;;;;;;;;;;5033757;28;20563;-50
2021/11/10 06:34:44;;;;;;;28.95;11.68;;;;;;;;;;5034234;28;20176;-50
2021/11/10 06:37:10;;;;;;;25.75;10.93;;;;;;;;;;5033157;28;20195;-50
2021/11/10 06:39:35;;;;;;;22.95;10.88;;;;;;;;;;5032439;28;20611;-50
2021/11/10 06:42:01;;;;;;;31.70;10.80;;;;;;;;;;5035106;28;20183;-51
2021/11/10 06:44:27;;;;;;;33.47;11.60;;;;;;;;;;5034236;28;20472;-49
2021/11/10 06:46:54;;;;;;;28.33;11.57;;;;;;;;;;5031395;28;20552;-50
2021/11/10 06:49:20;;;;;;;26.98;10.10;;;;;;;;;;5034613;28;20187;-50
2021/11/10 06:51:46;;;;;;;26.40;10.85;;;;;;;;;;5034669;28;20198;-50
2021/11/10 06:54:13;;;;;;;28.25;10.43;;;;;;;;;;5034565;28;20179;-50
2021/11/10 06:56:39;;;;;;;25.10;10.48;;;;;;;;;;5037944;28;20172;-50
2021/11/10 06:59:05;;;;;;;29.73;10.65;;;;;;;;;;5038096;28;20289;-50
2021/11/10 07:01:32;;;;;;;30.20;10.88;;;;;;;;;;5031736;28;20164;-50
2021/11/10 07:03:58;;;;;;;25.92;10.40;;;;;;;;;;5029387;28;20199;-50
2021/11/10 07:06:24;;;;;;;22.20;9.50;;;;;;;;;;5032991;28;20682;-50
2021/11/10 07:08:50;;;;;;;37.35;10.07;;;;;;;;;;5033949;28;20197;-50
2021/11/10 07:11:16;;;;;;;26.85;9.70;;;;;;;;;;5033275;28;20721;-49
2021/11/10 07:13:42;;;;;;;23.45;9.45;;;;;;;;;;5033334;28;20179;-50
2021/11/10 07:16:09;;;;;;;27.95;10.70;;;;;;;;;;5033798;28;20578;-50
2021/11/10 07:18:35;;;;;;;23.73;10.15;;;;;;;;;;5034184;28;20269;-50
2021/11/10 07:21:01;;;;;;;18.10;9.63;;;;;;;;;;5033727;28;20517;-50
2021/11/10 07:23:27;;;;;;;24.80;9.20;;;;;;;;;;5033803;28;20176;-50
2021/11/10 07:25:53;;;;;;;22.65;9.15;;;;;;;;;;5033476;28;20184;-52
2021/11/10 07:28:19;;;;;;;22.45;9.77;;;;;;;;;;5033745;28;20603;-49
2021/11/10 07:30:45;;;;;;;23.73;9.40;;;;;;;;;;5032833;28;20196;-51
2021/11/10 07:33:11;;;;;;;21.42;9.20;;;;;;;;;;5033142;28;20187;-50
2021/11/10 07:35:37;;;;;;;19.88;9.82;;;;;;;;;;5034069;28;20203;-50
2021/11/10 07:38:04;;;;;;;22.23;9.45;;;;;;;;;;5034080;28;20563;-50
2021/11/10 07:40:30;;;;;;;22.17;8.90;;;;;;;;;;5033086;28;20599;-51
2021/11/10 07:42:56;;;;;;;18.35;8.95;;;;;;;;;;5031637;28;20306;-50
2021/11/10 07:45:36;;;;;;;21.88;8.75;;;;;;;;;;5023151;28;20183;-50
2021/11/10 07:48:06;;;;;;;18.48;8.45;;;;;;;;;;5035328;28;20228;-51
2021/11/10 07:50:32;;;;;;;18.63;8.48;;;;;;;;;;5037544;28;20545;-52
2021/11/10 07:52:58;;;;;;;18.25;8.40;;;;;;;;;;5036877;28;20543;-51
2021/11/10 07:55:24;;;;;;;20.52;8.27;;;;;;;;;;5037192;28;20186;-50
2021/11/10 07:57:52;;;;;;;15.55;7.88;;;;;;;;;;5036895;28;20196;-50
2021/11/10 08:00:19;;;;;;;17.40;7.68;;;;;;;;;;5036720;28;20456;-51
2021/11/10 08:02:46;;;;;;;17.25;8.30;;;;;;;;;;5036805;28;20196;-51
2021/11/10 08:05:13;;;;;;;12.48;7.32;;;;;;;;;;5036733;28;20176;-51
2021/11/10 08:07:39;;;;;;;18.17;8.07;;;;;;;;;;5044877;28;20695;-50
2021/11/10 08:10:05;;;;;;;19.30;8.40;;;;;;;;;;5031924;28;20184;-50
2021/11/10 08:12:32;;;;;;;16.15;8.07;;;;;;;;;;5048149;28;20175;-50
2021/11/10 08:14:59;;;;;;;15.98;8.35;;;;;;;;;;5035173;28;20290;-51
2021/11/10 08:17:25;;;;;;;15.38;7.45;;;;;;;;;;5046380;28;20189;-50
2021/11/10 08:19:52;;;;;;;17.75;8.43;;;;;;;;;;5036609;28;20231;-50
2021/11/10 08:22:18;;;;;;;16.27;7.43;;;;;;;;;;5043971;28;20217;-49
2021/11/10 08:24:48;;;;;;;14.75;7.15;;;;;;;;;;5048509;28;20199;-51
2021/11/10 08:27:14;;;;;;;14.60;7.15;;;;;;;;;;5024818;28;20200;-51
2021/11/10 08:29:40;;;;;;;17.67;7.45;;;;;;;;;;5020270;28;20184;-51
2021/11/10 08:32:06;;;;;;;13.88;7.10;;;;;;;;;;5030333;28;20192;-51
2021/11/10 08:34:32;;;;;;;14.98;7.57;;;;;;;;;;5039394;28;20190;-50
2021/11/10 08:36:58;;;;;;;13.75;7.43;;;;;;;;;;5048467;28;20179;-50
2021/11/10 08:39:24;;;;;;;13.88;7.35;;;;;;;;;;5052057;28;20572;-51
2021/11/10 08:41:50;;;;;;;16.08;7.45;;;;;;;;;;5037544;28;20183;-50
2021/11/10 08:44:17;;;;;;;12.50;7.25;;;;;;;;;;5036125;28;20195;-51
2021/11/10 08:46:44;;;;;;;16.90;6.97;;;;;;;;;;5038352;28;20663;-50
2021/11/10 08:49:11;;;;;;;11.68;6.97;;;;;;;;;;5036657;28;20230;-51
2021/11/10 08:51:38;;;;;;;14.30;6.65;;;;;;;;;;5031496;28;20231;-50
2021/11/10 08:54:04;;;;;;;13.10;7.40;;;;;;;;;;5042719;28;20183;-50
2021/11/10 08:56:31;;;;;;;11.38;6.70;;;;;;;;;;5041064;28;20175;-51
2021/11/10 08:58:58;;;;;;;11.70;6.75;;;;;;;;;;5035532;28;20547;-51
2021/11/10 09:01:24;;;;;;;13.32;7.13;;;;;;;;;;5043865;28;20183;-51
2021/11/10 09:03:50;;;;;;;14.02;7.20;;;;;;;;;;5034090;28;20196;-51
2021/11/10 09:06:16;;;;;;;13.02;6.63;;;;;;;;;;5037295;28;20180;-50
2021/11/10 09:08:41;;;;;;;13.88;7.00;;;;;;;;;;5040984;28;20191;-51
2021/11/10 09:11:08;;;;;;;10.68;6.68;;;;;;;;;;5039365;28;20627;-50
2021/11/10 09:13:34;;;;;;;13.43;6.50;;;;;;;;;;5021172;28;20181;-51
2021/11/10 09:16:00;;;;;;;11.00;6.45;;;;;;;;;;5028308;28;20188;-51
2021/11/10 09:18:26;;;;;;;11.90;6.20;;;;;;;;;;5035515;28;20211;-51
2021/11/10 09:20:52;;;;;;;14.43;6.25;;;;;;;;;;5036294;28;20187;-51
2021/11/10 09:23:20;;;;;;;11.50;6.75;;;;;;;;;;5035455;28;20218;-51
2021/11/10 09:25:47;;;;;;;12.27;6.82;;;;;;;;;;5035922;28;20176;-50
2021/11/10 09:28:14;;;;;;;12.02;6.47;;;;;;;;;;5036184;28;20172;-51
2021/11/10 09:30:41;;;;;;;12.20;6.40;;;;;;;;;;5034473;28;20184;-51
2021/11/10 09:33:08;;;;;;;11.55;6.10;;;;;;;;;;5034742;28;20305;-51
2021/11/10 09:35:35;;;;;;;10.13;5.95;;;;;;;;;;5035498;28;20266;-51
2021/11/10 09:38:02;;;;;;;10.40;6.15;;;;;;;;;;5035536;28;20238;-50
2021/11/10 09:40:30;;;;;;;11.32;6.93;;;;;;;;;;5035386;28;20167;-50
2021/11/10 09:42:57;;;;;;;12.80;7.40;;;;;;;;;;5034568;28;20179;-50
2021/11/10 09:45:24;;;;;;;8.95;5.82;;;;;;;;;;5034884;28;20513;-51
2021/11/10 09:47:50;;;;;;;9.43;5.97;;;;;;;;;;5035217;28;20191;-50
2021/11/10 09:50:17;;;;;;;13.88;7.05;;;;;;;;;;5042126;28;20179;-56
2021/11/10 09:52:46;;;;;;;9.35;5.80;;;;;;;;;;5040326;28;20216;-51
2021/11/10 09:55:13;;;;;;;10.52;6.40;;;;;;;;;;5034901;28;20176;-50
2021/11/10 09:57:40;;;;;;;10.80;6.32;;;;;;;;;;5035001;28;20214;-51
2021/11/10 10:00:11;;;;;;;8.77;6.00;;;;;;;;;;5034720;28;20195;-51
2021/11/10 10:02:37;;;;;;;12.30;6.95;;;;;;;;;;5024495;28;20263;-51
2021/11/10 10:05:04;;;;;;;11.63;6.53;;;;;;;;;;5034603;28;20175;-51
2021/11/10 10:07:30;;;;;;;14.50;6.05;;;;;;;;;;5035269;28;20168;-50
2021/11/10 10:09:56;;;;;;;10.57;6.25;;;;;;;;;;5034341;28;20535;-50
2021/11/10 10:12:22;;;;;;;11.23;6.07;;;;;;;;;;5034857;28;20180;-50
2021/11/10 10:14:49;;;;;;;11.45;6.32;;;;;;;;;;5032976;28;20192;-50
2021/11/10 10:17:31;;;;;;;10.38;6.03;;;;;;;;;;5034990;28;20182;-50
2021/11/10 10:19:57;;;;;;;11.75;6.55;;;;;;;;;;5030465;28;20452;-50
2021/11/10 10:22:23;;;;;;;9.70;6.20;;;;;;;;;;5034616;28;20190;-50
2021/11/10 10:24:54;;;;;;;8.70;6.47;;;;;;;;;;5033281;28;20182;-50
2021/11/10 10:27:31;;;;;;;10.52;6.80;;;;;;;;;;5034527;28;20188;-51
2021/11/10 10:30:16;;;;;;;11.15;6.22;;;;;;;;;;5034487;28;20187;-50
2021/11/10 10:32:42;;;;;;;9.48;6.10;;;;;;;;;;5034816;28;20180;-50
2021/11/10 10:35:46;;;;;;;10.02;6.38;;;;;;;;;;5033297;28;20465;-50
2021/11/10 10:38:23;;;;;;;8.52;5.82;;;;;;;;;;5024757;28;20207;-51
2021/11/10 10:40:51;;;;;;;10.07;6.57;;;;;;;;;;5038651;28;20174;-50
2021/11/10 10:43:18;;;;;;;12.63;6.22;;;;;;;;;;5030481;28;20188;-50
2021/11/10 10:45:48;;;;;;;11.05;6.07;;;;;;;;;;5034073;28;20587;-50
2021/11/10 10:48:15;;;;;;;9.85;6.63;;;;;;;;;;5027147;28;20207;-51
2021/11/10 10:50:43;;;;;;;9.30;5.90;;;;;;;;;;5034168;28;20241;-50
2021/11/10 10:53:11;;;;;;;12.77;6.57;;;;;;;;;;5017600;28;20551;-50
2021/11/10 10:55:38;;;;;;;9.68;6.15;;;;;;;;;;5034069;28;20183;-50
2021/11/10 10:58:07;;;;;;;7.75;5.60;;;;;;;;;;5037093;28;20606;-50
2021/11/10 11:00:33;;;;;;;12.88;6.43;;;;;;;;;;5033849;28;20449;-50
2021/11/10 11:03:14;;;;;;;9.20;6.43;;;;;;;;;;5033370;28;20245;-51
2021/11/10 11:05:41;;;;;;;11.25;6.32;;;;;;;;;;5033431;28;20207;-50
2021/11/10 11:08:26;;;;;;;10.15;6.00;;;;;;;;;;5032714;28;20182;-50
2021/11/10 11:10:54;;;;;;;8.70;5.75;;;;;;;;;;5031380;28;20238;-50
2021/11/10 11:13:25;;;;;;;11.60;5.97;;;;;;;;;;5033724;28;20207;-50
2021/11/10 11:16:08;;;;;;;8.52;5.97;;;;;;;;;;5034130;28;20261;-50
2021/11/10 11:18:35;;;;;;;8.57;5.60;;;;;;;;;;5014451;28;20193;-50
2021/11/10 11:21:19;;;;;;;8.93;5.60;;;;;;;;;;5027487;28;20225;-50
2021/11/10 11:23:45;;;;;;;8.68;5.57;;;;;;;;;;5035982;28;20466;-50
2021/11/10 11:26:30;;;;;;;11.55;6.05;;;;;;;;;;5024592;28;20182;-50
2021/11/10 11:29:00;;;;;;;9.32;5.95;;;;;;;;;;5037811;28;20184;-50
2021/11/10 11:31:34;;;;;;;7.90;5.65;;;;;;;;;;5037785;28;20459;-50
2021/11/10 11:34:01;;;;;;;8.93;5.93;;;;;;;;;;5037321;28;20314;-50
2021/11/10 11:36:50;;;;;;;8.88;6.05;;;;;;;;;;5037678;28;20184;-50
2021/11/10 11:39:16;;;;;;;8.20;5.68;;;;;;;;;;5038470;28;20215;-50
2021/11/10 11:41:45;;;;;;;8.98;5.30;;;;;;;;;;5036739;28;20184;-51
2021/11/10 11:44:12;;;;;;;8.75;5.80;;;;;;;;;;5036775;28;20591;-50
2021/11/10 11:46:38;;;;;;;8.73;5.53;;;;;;;;;;5037281;28;20256;-50
2021/11/10 11:49:04;;;;;;;7.32;5.25;;;;;;;;;;5037707;28;20329;-50
2021/11/10 11:51:31;;;;;;;9.07;5.65;;;;;;;;;;5036199;28;20353;-50
2021/11/10 11:53:59;;;;;;;8.52;6.10;;;;;;;;;;5037320;28;20180;-54
2021/11/10 11:56:26;;;;;;;8.10;5.53;;;;;;;;;;5037363;28;20461;-50
2021/11/10 11:58:56;;;;;;;8.98;5.07;;;;;;;;;;5036307;28;20289;-50
2021/11/10 12:01:23;;;;;;;9.57;5.32;;;;;;;;;;5036967;28;20358;-50
2021/11/10 12:04:01;;;;;;;8.70;5.18;;;;;;;;;;5036093;28;20191;-50
2021/11/10 12:06:28;;;;;;;7.75;5.47;;;;;;;;;;5036096;28;20172;-50
2021/11/10 12:08:54;;;;;;;7.30;5.03;;;;;;;;;;5036848;28;20180;-50
2021/11/10 12:11:20;;;;;;;7.47;5.20;;;;;;;;;;5036420;28;20189;-50
2021/11/10 12:13:56;;;;;;;6.57;5.20;;;;;;;;;;5030629;28;20184;-50
2021/11/10 12:16:22;;;;;;;7.55;5.32;;;;;;;;;;5035943;28;20448;-50
2021/11/10 12:18:56;;;;;;;8.15;5.38;;;;;;;;;;5036716;28;20277;-50
2021/11/10 12:21:30;;;;;;;8.27;5.45;;;;;;;;;;5036939;28;20559;-50
2021/11/10 12:23:56;;;;;;;7.15;4.80;;;;;;;;;;5036477;28;20164;-50
2021/11/10 12:26:24;;;;;;;8.48;5.22;;;;;;;;;;5035671;28;20179;-50
2021/11/10 12:28:51;;;;;;;7.70;5.60;;;;;;;;;;5036352;28;20168;-50
2021/11/10 12:31:28;;;;;;;8.68;5.18;;;;;;;;;;5035393;28;20211;-50
2021/11/10 12:33:55;;;;;;;7.63;5.03;;;;;;;;;;5035354;28;20180;-50
2021/11/10 12:36:41;;;;;;;7.45;4.80;;;;;;;;;;5035918;28;20197;-50
2021/11/10 12:39:07;;;;;;;8.70;5.10;;;;;;;;;;5016845;28;20214;-50
2021/11/10 12:41:45;;;;;;;8.60;4.85;;;;;;;;;;5034523;28;20230;-50
2021/11/10 12:44:24;;;;;;;7.68;5.40;;;;;;;;;;5036132;28;20431;-50
2021/11/10 12:46:51;;;;;;;6.18;4.38;;;;;;;;;;5035185;28;20188;-50
2021/11/10 12:49:17;;;;;;;7.63;5.00;;;;;;;;;;5042893;28;20617;-50
2021/11/10 12:51:43;;;;;;;8.38;4.93;;;;;;;;;;5035801;28;20338;-50
2021/11/10 12:54:22;;;;;;;6.32;4.68;;;;;;;;;;5036216;28;20167;-50
2021/11/10 12:56:50;;;;;;;6.47;4.38;;;;;;;;;;5036102;28;20179;-50
2021/11/10 12:59:20;;;;;;;6.90;4.75;;;;;;;;;;5035058;28;20239;-50
2021/11/10 13:01:46;;;;;;;6.72;4.40;;;;;;;;;;5036103;28;20172;-50
2021/11/10 13:04:13;;;;;;;6.43;4.85;;;;;;;;;;5022526;28;20267;-51
2021/11/10 13:06:50;;;;;;;6.10;4.10;;;;;;;;;;5034179;28;20198;-50
2021/11/10 13:09:27;;;;;;;6.72;4.53;;;;;;;;;;5036297;28;20193;-50
2021/11/10 13:11:54;;;;;;;4.60;3.92;;;;;;;;;;5035560;28;20194;-50
2021/11/10 13:14:22;;;;;;;7.20;4.72;;;;;;;;;;5035471;28;20187;-50
2021/11/10 13:16:59;;;;;;;6.03;4.22;;;;;;;;;;5033350;28;20184;-50
2021/11/10 13:19:41;;;;;;;5.45;4.50;;;;;;;;;;5032541;28;20290;-50
2021/11/10 13:22:09;;;;;;;6.65;4.30;;;;;;;;;;5024092;28;20259;-50
2021/11/10 13:24:35;;;;;;;5.10;4.07;;;;;;;;;;5035072;28;20258;-50
2021/11/10 13:27:01;;;;;;;5.70;4.05;;;;;;;;;;5035925;28;20168;-51
2021/11/10 13:29:27;;;;;;;5.97;4.10;;;;;;;;;;5035187;28;20184;-50
2021/11/10 13:32:11;;;;;;;9.07;4.25;;;;;;;;;;5035194;28;20179;-50
2021/11/10 13:34:37;;;;;;;5.15;3.88;;;;;;;;;;5034715;28;20178;-50
2021/11/10 13:37:04;;;;;;;6.18;4.35;;;;;;;;;;5034265;28;20267;-50
2021/11/10 13:39:30;;;;;;;7.78;4.22;;;;;;;;;;5035500;28;20188;-49
2021/11/10 13:41:57;;;;;;;4.78;4.00;;;;;;;;;;5035168;28;20225;-50
2021/11/10 13:44:27;;;;;;;5.85;4.35;;;;;;;;;;5033666;28;20207;-50
2021/11/10 13:46:55;;;;;;;5.13;3.92;;;;;;;;;;5034368;28;20278;-50
2021/11/10 13:49:21;;;;;;;7.18;4.15;;;;;;;;;;5034338;28;20187;-50
2021/11/10 13:51:53;;;;;;;5.60;4.07;;;;;;;;;;5035137;28;20188;-50
2021/11/10 13:54:19;;;;;;;5.85;4.28;;;;;;;;;;5033605;28;20466;-50
2021/11/10 13:56:47;;;;;;;6.57;4.15;;;;;;;;;;5034669;28;20187;-49
2021/11/10 13:59:25;;;;;;;5.93;3.88;;;;;;;;;;5034750;28;20290;-50
2021/11/10 14:01:53;;;;;;;5.28;4.00;;;;;;;;;;5034839;28;20521;-50
2021/11/10 14:04:20;;;;;;;5.38;3.90;;;;;;;;;;5034800;28;20618;-51
2021/11/10 14:07:06;;;;;;;7.80;3.95;;;;;;;;;;5035113;28;20187;-49
2021/11/10 14:09:34;;;;;;;4.07;3.38;;;;;;;;;;5033403;28;20179;-50
2021/11/10 14:12:19;;;;;;;5.32;4.07;;;;;;;;;;5034567;28;20187;-50
2021/11/10 14:14:45;;;;;;;4.78;3.80;;;;;;;;;;5034724;28;21067;-50
2021/11/10 14:17:12;;;;;;;7.57;4.03;;;;;;;;;;5034877;28;20182;-49
2021/11/10 14:19:38;;;;;;;5.43;3.67;;;;;;;;;;5034474;28;20229;-49
2021/11/10 14:22:04;;;;;;;6.13;3.95;;;;;;;;;;5034603;28;20206;-50
2021/11/10 14:24:31;;;;;;;5.50;4.03;;;;;;;;;;5034087;28;20631;-51
2021/11/10 14:27:04;;;;;;;4.10;3.42;;;;;;;;;;5033061;28;20361;-50
2021/11/10 14:29:31;;;;;;;7.00;4.22;;;;;;;;;;5035056;28;20501;-50
2021/11/10 14:31:57;;;;;;;6.63;3.85;;;;;;;;;;5034679;28;20191;-50
2021/11/10 14:34:29;;;;;;;5.40;3.40;;;;;;;;;;5034352;28;20176;-50
2021/11/10 14:36:58;;;;;;;4.72;3.85;;;;;;;;;;5034339;28;20465;-50
2021/11/10 14:39:25;;;;;;;4.15;3.60;;;;;;;;;;5034102;28;20213;-50
2021/11/10 14:41:59;;;;;;;4.75;3.55;;;;;;;;;;5034299;28;20191;-50